createdAt,value
2023-05-05T00:01:29.992Z,75.78
2023-05-05T00:03:56.163Z,76.21
2023-05-05T00:06:22.340Z,76.19
2023-05-05T00:08:48.512Z,76.13
2023-05-05T00:11:14.652Z,75.97
2023-05-05T00:13:40.793Z,75.81
2023-05-05T00:16:06.965Z,76.13
2023-05-05T00:18:33.200Z,76.13
2023-05-05T00:20:59.543Z,76.26
2023-05-05T00:23:25.737Z,76.89
2023-05-05T00:25:51.827Z,76.79
2023-05-05T00:28:17.971Z,76.85
2023-05-05T00:30:44.157Z,77.12
2023-05-05T00:33:10.639Z,76.98
2023-05-05T00:35:36.728Z,77.04
2023-05-05T00:38:04.440Z,76.79
2023-05-05T00:40:30.861Z,76.74
2023-05-05T00:42:58.829Z,76.84
2023-05-05T00:45:25.335Z,76.96
2023-05-05T00:47:51.521Z,77.14
2023-05-05T00:50:17.699Z,76.94
2023-05-05T00:52:44.031Z,76.79
2023-05-05T00:55:10.083Z,76.63
2023-05-05T00:57:36.307Z,76.68
2023-05-05T01:00:02.672Z,76.79
2023-05-05T01:02:30.387Z,76.89
2023-05-05T01:04:57.709Z,76.74
2023-05-05T01:07:23.911Z,76.78
2023-05-05T01:09:57.952Z,76.85
2023-05-05T01:12:30.632Z,76.98
2023-05-05T01:14:56.699Z,76.84
2023-05-05T01:17:23.042Z,77.25
2023-05-05T01:19:49.416Z,77.74
2023-05-05T01:22:15.496Z,77.60
2023-05-05T01:24:41.603Z,77.39
2023-05-05T01:27:08.897Z,77.57
2023-05-05T01:29:35.185Z,77.50
2023-05-05T01:32:01.330Z,77.37
2023-05-05T01:34:27.787Z,77.52
2023-05-05T01:36:53.942Z,77.51
2023-05-05T01:39:20.032Z,77.51
2023-05-05T01:41:46.140Z,77.60
2023-05-05T01:44:12.244Z,77.93
2023-05-05T01:46:38.315Z,77.91
2023-05-05T01:49:04.415Z,77.90
2023-05-05T01:51:30.563Z,77.99
2023-05-05T01:53:56.774Z,78.02
2023-05-05T01:56:22.909Z,78.03
2023-05-05T01:58:48.962Z,78.14
2023-05-05T02:01:15.049Z,78.25
2023-05-05T02:03:41.393Z,78.09
2023-05-05T02:06:07.722Z,78.07
2023-05-05T02:08:34.030Z,78.21
2023-05-05T02:11:00.245Z,78.33
2023-05-05T02:13:26.440Z,78.24
2023-05-05T02:15:52.560Z,78.03
2023-05-05T02:18:18.810Z,78.11
2023-05-05T02:20:45.687Z,78.18
2023-05-05T02:23:11.800Z,78.11
2023-05-05T02:25:38.099Z,77.93
2023-05-05T02:28:04.263Z,77.87
2023-05-05T02:30:30.330Z,77.87
2023-05-05T02:32:56.530Z,78.12
2023-05-05T02:35:22.747Z,78.33
2023-05-05T02:37:48.828Z,78.57
2023-05-05T02:40:14.971Z,78.41
2023-05-05T02:42:41.164Z,78.40
2023-05-05T02:45:07.365Z,78.65
2023-05-05T02:47:34.546Z,78.68
2023-05-05T02:50:00.732Z,78.51
2023-05-05T02:52:26.807Z,78.44
2023-05-05T02:54:53.052Z,78.36
2023-05-05T02:57:19.096Z,78.48
2023-05-05T02:59:48.807Z,78.67
2023-05-05T03:02:15.027Z,78.98
2023-05-05T03:04:41.144Z,79.73
2023-05-05T03:07:07.568Z,79.39
2023-05-05T03:09:33.696Z,78.96
2023-05-05T03:12:00.390Z,78.94
2023-05-05T03:14:26.582Z,79.29
2023-05-05T03:16:52.671Z,79.47
2023-05-05T03:19:18.780Z,79.62
2023-05-05T03:21:44.896Z,79.76
2023-05-05T03:24:11.074Z,79.78
2023-05-05T03:26:37.156Z,79.61
2023-05-05T03:29:06.033Z,79.52
2023-05-05T03:31:32.221Z,79.37
2023-05-05T03:33:58.339Z,79.42
2023-05-05T03:36:25.115Z,79.38
2023-05-05T03:38:52.587Z,79.19
2023-05-05T03:41:18.967Z,79.11
2023-05-05T03:43:45.149Z,79.09
2023-05-05T03:46:14.321Z,78.88
2023-05-05T03:48:41.251Z,78.77
2023-05-05T03:51:07.342Z,78.67
2023-05-05T03:53:33.514Z,78.51
2023-05-05T03:55:59.855Z,78.53
2023-05-05T03:58:25.936Z,78.45
2023-05-05T04:00:52.058Z,78.24
2023-05-05T04:03:18.283Z,78.22
2023-05-05T04:05:44.460Z,77.64
2023-05-05T04:08:10.576Z,77.19
2023-05-05T04:10:36.700Z,77.24
2023-05-05T04:13:03.543Z,77.27
2023-05-05T04:15:29.699Z,77.22
2023-05-05T04:17:55.838Z,77.30
2023-05-05T04:20:22.187Z,77.21
2023-05-05T04:22:49.373Z,77.10
2023-05-05T04:25:17.608Z,77.00
2023-05-05T04:27:43.721Z,77.02
2023-05-05T04:30:10.258Z,76.66
2023-05-05T04:32:36.485Z,76.21
2023-05-05T04:35:03.118Z,75.83
2023-05-05T04:37:29.279Z,75.92
2023-05-05T04:39:55.347Z,75.52
2023-05-05T04:42:21.439Z,75.20
2023-05-05T04:44:47.540Z,74.88
2023-05-05T04:47:14.639Z,75.02
2023-05-05T04:49:40.998Z,75.23
2023-05-05T04:52:07.133Z,75.23
2023-05-05T04:54:33.235Z,75.35
2023-05-05T04:56:59.579Z,75.60
2023-05-05T04:59:25.816Z,75.74
2023-05-05T05:01:51.971Z,75.46
2023-05-05T05:04:18.223Z,75.43
2023-05-05T05:06:45.315Z,75.56
2023-05-05T05:09:11.422Z,75.64
2023-05-05T05:11:37.677Z,75.69
2023-05-05T05:14:03.828Z,75.72
2023-05-05T05:16:30.109Z,76.01
2023-05-05T05:18:56.373Z,76.24
2023-05-05T05:21:22.534Z,76.38
2023-05-05T05:23:48.755Z,76.37
2023-05-05T05:26:15.782Z,76.55
2023-05-05T05:28:41.940Z,76.76
2023-05-05T05:31:08.054Z,77.06
2023-05-05T05:33:34.130Z,76.96
2023-05-05T05:36:00.252Z,77.11
2023-05-05T05:38:26.313Z,77.31
2023-05-05T05:40:53.749Z,77.34
2023-05-05T05:43:19.921Z,77.73
2023-05-05T05:45:46.091Z,77.32
2023-05-05T05:48:12.178Z,77.32
2023-05-05T05:50:38.502Z,77.01
2023-05-05T05:53:04.660Z,77.08
2023-05-05T05:55:30.911Z,77.14
2023-05-05T05:57:57.379Z,76.96
2023-05-05T06:00:23.488Z,77.07
2023-05-05T06:02:50.933Z,77.03
2023-05-05T06:05:17.269Z,76.21
2023-05-05T06:07:43.428Z,75.74
2023-05-05T06:10:25.880Z,75.27
2023-05-05T06:12:53.430Z,75.16
2023-05-05T06:15:19.578Z,74.63
2023-05-05T06:17:45.693Z,74.31
2023-05-05T06:20:12.323Z,74.49
2023-05-05T06:22:38.429Z,74.20
2023-05-05T06:25:04.912Z,74.43
2023-05-05T06:27:31.066Z,74.15
2023-05-05T06:29:57.228Z,74.28
2023-05-05T06:32:23.323Z,73.83
2023-05-05T06:34:49.434Z,73.68
2023-05-05T06:37:15.480Z,73.78
2023-05-05T06:39:41.606Z,72.62
2023-05-05T06:42:07.845Z,73.24
2023-05-05T06:44:35.679Z,72.25
2023-05-05T06:47:01.860Z,72.60
2023-05-05T06:49:28.134Z,72.51
2023-05-05T06:51:54.359Z,72.23
2023-05-05T06:54:20.712Z,71.61
2023-05-05T06:56:46.913Z,71.15
2023-05-05T06:59:13.154Z,70.47
2023-05-05T07:01:39.242Z,70.80
2023-05-05T07:04:06.352Z,69.31
2023-05-05T07:06:33.093Z,68.98
2023-05-05T07:08:59.179Z,69.12
2023-05-05T07:11:25.339Z,69.95
2023-05-05T07:13:51.614Z,70.41
2023-05-05T07:16:17.713Z,70.48
2023-05-05T07:18:43.869Z,70.01
2023-05-05T07:21:09.972Z,69.58
2023-05-05T07:23:37.272Z,69.27
2023-05-05T07:26:03.603Z,68.72
2023-05-05T07:28:29.706Z,68.46
2023-05-05T07:30:55.807Z,68.16
2023-05-05T07:33:21.954Z,67.43
2023-05-05T07:35:48.085Z,66.57
2023-05-05T07:38:14.187Z,66.50
2023-05-05T07:40:40.441Z,65.40
2023-05-05T07:43:06.629Z,64.13
2023-05-05T07:45:32.767Z,64.50
2023-05-05T07:47:59.081Z,64.67
2023-05-05T07:50:26.466Z,64.10
2023-05-05T07:52:59.306Z,64.63
2023-05-05T07:55:36.581Z,65.26
2023-05-05T07:58:03.179Z,66.20
2023-05-05T08:00:29.417Z,66.59
2023-05-05T08:02:55.715Z,66.60
2023-05-05T08:05:21.914Z,66.24
2023-05-05T08:07:48.036Z,65.03
2023-05-05T08:10:14.412Z,64.71
2023-05-05T08:12:40.745Z,64.00
2023-05-05T08:15:07.157Z,63.19
2023-05-05T08:17:33.755Z,62.84
2023-05-05T08:19:59.922Z,63.23
2023-05-05T08:22:25.989Z,62.81
2023-05-05T08:24:52.094Z,61.96
2023-05-05T08:27:18.175Z,60.88
2023-05-05T08:29:44.243Z,62.35
2023-05-05T08:32:12.087Z,62.32
2023-05-05T08:34:38.238Z,61.75
2023-05-05T08:37:04.323Z,61.25
2023-05-05T08:39:30.521Z,61.73
2023-05-05T08:41:56.626Z,61.57
2023-05-05T08:44:22.814Z,58.64
2023-05-05T08:46:48.996Z,59.71
2023-05-05T08:49:15.690Z,59.06
2023-05-05T08:51:41.957Z,57.96
2023-05-05T08:54:08.036Z,59.53
2023-05-05T08:56:34.196Z,57.68
2023-05-05T08:59:03.106Z,55.66
2023-05-05T09:01:29.495Z,55.44
2023-05-05T09:03:55.719Z,54.80
2023-05-05T09:06:22.700Z,54.98
2023-05-05T09:08:48.984Z,55.03
2023-05-05T09:11:15.187Z,55.30
2023-05-05T09:13:41.279Z,53.86
2023-05-05T09:16:07.608Z,54.69
2023-05-05T09:18:33.668Z,55.10
2023-05-05T09:20:59.792Z,54.04
2023-05-05T09:23:26.066Z,53.00
2023-05-05T09:25:52.122Z,49.63
2023-05-05T09:28:18.211Z,50.30
2023-05-05T09:30:44.410Z,48.35
2023-05-05T09:33:10.736Z,50.01
2023-05-05T09:35:37.041Z,48.76
2023-05-05T09:38:03.177Z,48.10
2023-05-05T09:40:29.220Z,41.21
2023-05-05T09:42:55.288Z,43.27
2023-05-05T09:45:21.401Z,36.56
2023-05-05T09:47:47.763Z,36.32
2023-05-05T09:50:15.325Z,37.91
2023-05-05T09:52:42.106Z,38.36
2023-05-05T09:55:08.189Z,36.90
2023-05-05T09:57:34.360Z,37.98
2023-05-05T10:00:00.576Z,39.72
2023-05-05T10:02:27.643Z,39.96
2023-05-05T10:04:53.817Z,39.41
2023-05-05T10:07:20.226Z,38.36
2023-05-05T10:09:46.299Z,36.52
2023-05-05T10:12:12.401Z,36.10
2023-05-05T10:14:38.567Z,36.22
2023-05-05T10:17:04.745Z,37.64
2023-05-05T10:19:31.755Z,36.60
2023-05-05T10:21:57.906Z,37.50
2023-05-05T10:24:24.009Z,39.72
2023-05-05T10:26:50.142Z,40.13
2023-05-05T10:29:16.668Z,34.52
2023-05-05T10:31:42.875Z,33.31
2023-05-05T10:34:09.111Z,34.16
2023-05-05T10:36:35.832Z,33.98
2023-05-05T10:39:01.953Z,32.18
2023-05-05T10:41:28.055Z,32.16
2023-05-05T10:43:54.240Z,33.14
2023-05-05T10:46:20.431Z,30.81
2023-05-05T10:48:46.594Z,28.90
2023-05-05T10:51:14.181Z,30.52
2023-05-05T10:53:45.012Z,32.23
2023-05-05T10:56:11.214Z,33.66
2023-05-05T10:58:50.966Z,33.19
2023-05-05T11:01:17.748Z,31.30
2023-05-05T11:03:44.088Z,30.84
2023-05-05T11:06:11.838Z,30.52
2023-05-05T11:08:38.072Z,31.65
2023-05-05T11:11:04.172Z,30.48
2023-05-05T11:13:30.497Z,28.26
2023-05-05T11:15:56.733Z,28.85
2023-05-05T11:18:22.877Z,29.57
2023-05-05T11:20:49.255Z,29.61
2023-05-05T11:23:16.633Z,29.64
2023-05-05T11:25:43.918Z,31.14
2023-05-05T11:28:10.481Z,31.09
2023-05-05T11:30:36.650Z,28.58
2023-05-05T11:33:02.852Z,29.29
2023-05-05T11:35:28.985Z,29.57
2023-05-05T11:37:55.064Z,30.37
2023-05-05T11:40:21.503Z,28.98
2023-05-05T11:42:47.620Z,28.63
2023-05-05T11:45:13.806Z,29.46
2023-05-05T11:47:40.074Z,27.98
2023-05-05T11:50:06.448Z,29.48
2023-05-05T11:52:33.848Z,30.98
2023-05-05T11:55:00.290Z,31.64
2023-05-05T11:57:26.470Z,30.70
2023-05-05T11:59:52.539Z,32.52
2023-05-05T12:02:18.727Z,31.73
2023-05-05T12:04:46.181Z,30.09
2023-05-05T12:07:12.297Z,30.84
2023-05-05T12:09:38.453Z,31.17
2023-05-05T12:12:04.521Z,29.96
2023-05-05T12:14:30.742Z,28.50
2023-05-05T12:16:57.488Z,28.20
2023-05-05T12:19:23.670Z,28.24
2023-05-05T12:21:49.960Z,29.39
2023-05-05T12:24:16.245Z,28.50
2023-05-05T12:26:42.361Z,29.47
2023-05-05T12:29:08.455Z,31.13
2023-05-05T12:31:35.077Z,29.43
2023-05-05T12:34:01.275Z,30.44
2023-05-05T12:36:29.238Z,31.43
2023-05-05T12:38:56.616Z,32.03
2023-05-05T12:41:22.831Z,31.28
2023-05-05T12:43:48.912Z,30.61
2023-05-05T12:46:15.145Z,31.20
2023-05-05T12:48:43.975Z,30.71
2023-05-05T12:51:11.492Z,30.91
2023-05-05T12:53:37.705Z,31.06
2023-05-05T12:56:04.019Z,32.02
2023-05-05T12:58:31.979Z,33.03
2023-05-05T13:00:58.225Z,33.27
2023-05-05T13:03:24.579Z,34.39
2023-05-05T13:05:51.053Z,32.81
2023-05-05T13:08:17.921Z,31.13
2023-05-05T13:10:44.044Z,32.04
2023-05-05T13:13:10.173Z,32.52
2023-05-05T13:15:37.069Z,32.80
2023-05-05T13:18:03.237Z,31.71
2023-05-05T13:20:29.357Z,31.85
2023-05-05T13:22:55.549Z,33.00
2023-05-05T13:25:22.110Z,33.72
2023-05-05T13:27:48.198Z,34.55
2023-05-05T13:30:14.305Z,34.40
2023-05-05T13:32:40.643Z,32.78
2023-05-05T13:35:07.052Z,33.59
2023-05-05T13:37:33.644Z,32.92
2023-05-05T13:40:00.659Z,33.71
2023-05-05T13:42:26.815Z,35.24
2023-05-05T13:44:53.178Z,34.86
2023-05-05T13:47:19.436Z,34.08
2023-05-05T13:49:46.002Z,34.59
2023-05-05T13:52:12.181Z,33.90
2023-05-05T13:54:38.582Z,34.77
2023-05-05T13:57:07.189Z,34.47
2023-05-05T13:59:33.271Z,34.41
2023-05-05T14:02:00.541Z,34.78
2023-05-05T14:04:26.686Z,34.62
2023-05-05T14:06:52.914Z,33.96
2023-05-05T14:09:18.978Z,34.36
2023-05-05T14:11:45.015Z,35.41
2023-05-05T14:14:11.295Z,35.04
2023-05-05T14:16:37.665Z,36.06
2023-05-05T14:19:03.949Z,35.75
2023-05-05T14:21:31.931Z,34.89
2023-05-05T14:23:57.994Z,35.66
2023-05-05T14:26:24.906Z,35.07
2023-05-05T14:28:51.141Z,35.85
2023-05-05T14:31:17.277Z,34.55
2023-05-05T14:33:43.328Z,34.31
2023-05-05T14:36:09.757Z,34.75
2023-05-05T14:38:35.862Z,35.19
2023-05-05T14:41:02.018Z,33.97
2023-05-05T14:43:28.240Z,34.54
2023-05-05T14:45:54.481Z,35.28
2023-05-05T14:48:21.533Z,35.32
2023-05-05T14:50:47.888Z,35.41
2023-05-05T14:53:13.941Z,34.89
2023-05-05T14:55:40.072Z,34.97
2023-05-05T14:58:06.214Z,35.59
2023-05-05T15:00:35.130Z,34.70
2023-05-05T15:03:01.472Z,33.94
2023-05-05T15:05:27.727Z,34.01
2023-05-05T15:07:53.796Z,34.66
2023-05-05T15:10:21.867Z,34.28
2023-05-05T15:12:48.576Z,34.58
2023-05-05T15:15:14.716Z,35.20
2023-05-05T15:17:41.245Z,35.41
2023-05-05T15:20:07.726Z,35.45
2023-05-05T15:22:33.867Z,35.77
2023-05-05T15:25:00.518Z,35.36
2023-05-05T15:27:26.865Z,36.09
2023-05-05T15:29:53.769Z,36.22
2023-05-05T15:32:19.912Z,36.22
2023-05-05T15:34:48.330Z,37.62
2023-05-05T15:37:15.798Z,38.07
2023-05-05T15:39:41.947Z,38.65
2023-05-05T15:42:09.785Z,39.01
2023-05-05T15:44:35.849Z,39.24
2023-05-05T15:47:01.942Z,39.69
2023-05-05T15:49:28.089Z,40.32
2023-05-05T15:51:54.173Z,39.77
2023-05-05T15:54:20.329Z,39.83
2023-05-05T15:56:46.718Z,39.64
2023-05-05T15:59:12.794Z,39.96
2023-05-05T16:01:39.070Z,40.23
2023-05-05T16:04:05.586Z,40.22
2023-05-05T16:06:31.642Z,40.39
2023-05-05T16:08:58.133Z,40.74
2023-05-05T16:11:25.286Z,40.69
2023-05-05T16:13:51.401Z,41.13
2023-05-05T16:16:17.546Z,41.06
2023-05-05T16:18:43.866Z,41.32
2023-05-05T16:21:10.307Z,41.90
2023-05-05T16:23:36.542Z,41.67
2023-05-05T16:26:03.431Z,41.76
2023-05-05T16:28:29.509Z,41.90
2023-05-05T16:30:55.738Z,42.08
2023-05-05T16:33:21.947Z,42.41
2023-05-05T16:35:48.006Z,42.72
2023-05-05T16:38:14.227Z,42.58
2023-05-05T16:40:40.339Z,42.72
2023-05-05T16:43:06.398Z,43.01
2023-05-05T16:45:32.513Z,43.18
2023-05-05T16:47:58.599Z,42.93
2023-05-05T16:50:24.705Z,42.99
2023-05-05T16:52:51.008Z,43.50
2023-05-05T16:55:17.136Z,43.85
2023-05-05T16:57:43.244Z,43.94
2023-05-05T17:00:09.541Z,44.26
2023-05-05T17:02:35.903Z,44.28
2023-05-05T17:05:02.305Z,44.38
2023-05-05T17:07:28.409Z,43.88
2023-05-05T17:09:54.531Z,43.71
2023-05-05T17:12:20.672Z,43.78
2023-05-05T17:14:47.010Z,44.01
2023-05-05T17:17:13.608Z,44.29
2023-05-05T17:19:40.010Z,44.44
2023-05-05T17:22:06.095Z,44.59
2023-05-05T17:24:32.214Z,44.66
2023-05-05T17:26:58.879Z,44.69
2023-05-05T17:29:25.806Z,44.80
2023-05-05T17:31:53.405Z,45.00
2023-05-05T17:34:19.717Z,45.18
2023-05-05T17:36:46.081Z,45.35
2023-05-05T17:39:13.015Z,45.43
2023-05-05T17:41:41.207Z,45.78
2023-05-05T17:44:07.338Z,45.91
2023-05-05T17:46:33.544Z,46.27
2023-05-05T17:48:59.828Z,46.68
2023-05-05T17:51:26.718Z,46.44
2023-05-05T17:53:52.830Z,46.51
2023-05-05T17:56:18.923Z,46.62
2023-05-05T17:58:45.128Z,46.57
2023-05-05T18:01:13.367Z,46.60
2023-05-05T18:03:41.016Z,46.70
2023-05-05T18:06:07.348Z,46.90
2023-05-05T18:08:33.653Z,46.71
2023-05-05T18:11:01.086Z,46.68
2023-05-05T18:13:27.331Z,46.74
2023-05-05T18:15:53.641Z,46.67
2023-05-05T18:18:20.357Z,46.73
2023-05-05T18:20:46.591Z,46.80
2023-05-05T18:23:12.932Z,47.08
2023-05-05T18:25:39.039Z,47.30
2023-05-05T18:28:05.277Z,47.46
2023-05-05T18:30:31.670Z,47.67
2023-05-05T18:32:58.034Z,47.81
2023-05-05T18:35:24.126Z,48.05
2023-05-05T18:37:50.470Z,48.24
2023-05-05T18:40:16.732Z,48.55
2023-05-05T18:42:43.056Z,48.56
2023-05-05T18:45:09.802Z,48.80
2023-05-05T18:47:36.265Z,49.17
2023-05-05T18:50:02.352Z,49.10
2023-05-05T18:52:28.506Z,49.16
2023-05-05T18:54:54.686Z,49.50
2023-05-05T18:57:21.358Z,49.77
2023-05-05T18:59:47.543Z,49.83
2023-05-05T19:02:13.712Z,49.97
2023-05-05T19:04:40.620Z,50.03
2023-05-05T19:07:06.884Z,50.05
2023-05-05T19:09:32.956Z,49.97
2023-05-05T19:11:59.105Z,50.13
2023-05-05T19:14:25.302Z,50.57
2023-05-05T19:16:51.470Z,53.28
2023-05-05T19:19:17.649Z,52.80
2023-05-05T19:21:43.896Z,51.69
2023-05-05T19:24:10.066Z,51.09
2023-05-05T19:26:36.363Z,51.15
2023-05-05T19:29:02.579Z,50.30
2023-05-05T19:31:30.224Z,50.01
2023-05-05T19:33:56.376Z,49.85
2023-05-05T19:36:22.578Z,49.84
2023-05-05T19:38:48.707Z,50.10
2023-05-05T19:41:16.601Z,50.47
2023-05-05T19:43:45.598Z,50.59
2023-05-05T19:46:11.800Z,50.85
2023-05-05T19:48:37.986Z,51.31
2023-05-05T19:51:04.183Z,51.70
2023-05-05T19:53:30.253Z,51.91
2023-05-05T19:55:56.355Z,52.08
2023-05-05T19:58:22.566Z,52.26
2023-05-05T20:00:48.745Z,52.34
2023-05-05T20:03:14.978Z,52.68
2023-05-05T20:05:41.132Z,53.14
2023-05-05T20:08:07.212Z,53.20
2023-05-05T20:10:33.397Z,53.45
2023-05-05T20:12:59.735Z,53.54
2023-05-05T20:15:26.079Z,53.73
2023-05-05T20:17:52.679Z,54.03
2023-05-05T20:20:19.342Z,54.35
2023-05-05T20:22:45.740Z,54.47
2023-05-05T20:25:12.274Z,54.80
2023-05-05T20:27:38.458Z,55.14
2023-05-05T20:30:04.504Z,55.27
2023-05-05T20:32:30.952Z,55.50
2023-05-05T20:34:57.234Z,55.80
2023-05-05T20:37:26.299Z,56.13
2023-05-05T20:39:52.384Z,56.39
2023-05-05T20:42:18.525Z,56.54
2023-05-05T20:44:44.791Z,56.70
2023-05-05T20:47:12.967Z,57.04
2023-05-05T20:49:39.184Z,57.36
2023-05-05T20:52:05.290Z,57.64
2023-05-05T20:54:32.070Z,57.68
2023-05-05T20:56:58.223Z,57.83
2023-05-05T20:59:27.202Z,57.98
2023-05-05T21:01:53.521Z,58.37
2023-05-05T21:04:19.814Z,58.60
2023-05-05T21:06:46.058Z,58.84
2023-05-05T21:09:12.161Z,58.99
2023-05-05T21:11:38.355Z,59.57
2023-05-05T21:14:04.404Z,59.87
2023-05-05T21:16:33.607Z,60.03
2023-05-05T21:18:59.883Z,60.04
2023-05-05T21:21:26.118Z,60.31
2023-05-05T21:23:54.528Z,60.40
2023-05-05T21:26:20.635Z,60.85
2023-05-05T21:28:46.726Z,61.33
2023-05-05T21:31:21.753Z,61.58
2023-05-05T21:33:48.465Z,61.79
2023-05-05T21:36:16.748Z,62.06
2023-05-05T21:38:42.926Z,62.16
2023-05-05T21:41:09.042Z,62.16
2023-05-05T21:43:35.359Z,62.18
2023-05-05T21:46:01.475Z,62.22
2023-05-05T21:48:27.802Z,62.25
2023-05-05T21:50:53.909Z,62.47
2023-05-05T21:53:19.981Z,62.26
2023-05-05T21:55:46.083Z,62.11
2023-05-05T21:58:12.146Z,62.26
2023-05-05T22:00:38.202Z,62.42
2023-05-05T22:03:04.454Z,62.54
2023-05-05T22:05:31.011Z,62.65
2023-05-05T22:07:57.123Z,62.73
2023-05-05T22:10:23.254Z,62.84
2023-05-05T22:12:49.367Z,63.23
2023-05-05T22:15:19.139Z,63.49
2023-05-05T22:17:45.871Z,63.61
2023-05-05T22:20:11.998Z,63.58
2023-05-05T22:22:38.057Z,63.50
2023-05-05T22:25:04.455Z,63.68
2023-05-05T22:27:30.560Z,63.87
2023-05-05T22:29:56.647Z,63.88
2023-05-05T22:32:22.774Z,63.98
2023-05-05T22:34:48.942Z,64.08
2023-05-05T22:37:15.488Z,64.36
2023-05-05T22:39:41.610Z,64.59
2023-05-05T22:42:07.716Z,65.22
2023-05-05T22:44:33.832Z,66.29
2023-05-05T22:47:00.723Z,66.67
2023-05-05T22:49:28.055Z,66.65
2023-05-05T22:51:54.174Z,66.92
2023-05-05T22:54:20.343Z,67.24
2023-05-05T22:56:46.681Z,67.47
2023-05-05T22:59:12.756Z,67.19
2023-05-05T23:01:39.324Z,67.50
2023-05-05T23:04:05.809Z,67.52
2023-05-05T23:06:32.143Z,67.41
2023-05-05T23:08:58.312Z,67.37
2023-05-05T23:11:24.418Z,67.28
2023-05-05T23:13:50.494Z,67.30
2023-05-05T23:16:19.538Z,67.44
2023-05-05T23:18:45.627Z,67.85
2023-05-05T23:21:11.772Z,67.96
2023-05-05T23:23:37.938Z,68.27
2023-05-05T23:26:04.127Z,68.28
2023-05-05T23:28:30.306Z,68.34
2023-05-05T23:30:56.498Z,68.36
2023-05-05T23:33:22.673Z,68.58
2023-05-05T23:35:48.854Z,68.62
2023-05-05T23:38:15.507Z,68.92
2023-05-05T23:40:41.580Z,69.57
2023-05-05T23:43:07.736Z,69.98
2023-05-05T23:45:33.887Z,70.80
2023-05-05T23:48:00.062Z,70.95
2023-05-05T23:50:27.089Z,71.21
2023-05-05T23:52:53.254Z,71.14
2023-05-05T23:55:19.298Z,71.03
2023-05-05T23:57:45.349Z,71.26
